Time,TemperatureF,DewpointF,PressureIn,WindDirection,WindDirectionDegrees,WindSpeedMPH,WindSpeedGustMPH,Humidity,HourlyPrecipIn,Conditions,Clouds,dailyrainin,SoftwareType,DateUTC
2013-06-23 00:02:00,71.5,70.0,30.03,WNW,292,0.0,0.0,95,0.00,,---,0.00,VWS V14.01,2013-06-23 05:02:00,
2013-06-23 00:07:00,71.5,70.0,30.03,WNW,292,0.0,0.0,95,0.00,,---,0.00,VWS V14.01,2013-06-23 05:07:00,
2013-06-23 00:12:00,71.3,69.8,30.03,NNE,22,0.0,0.0,95,0.00,,---,0.00,VWS V14.01,2013-06-23 05:12:00,
2013-06-23 00:17:00,71.3,69.8,30.03,ENE,68,0.0,0.0,95,0.00,,---,0.00,VWS V14.01,2013-06-23 05:17:00,
2013-06-23 00:22:00,71.3,69.8,30.03,ENE,68,0.0,0.0,95,0.00,,---,0.00,VWS V14.01,2013-06-23 05:22:00,
2013-06-23 00:27:00,71.2,69.7,30.03,ENE,68,0.0,0.0,95,0.00,,---,0.00,VWS V14.01,2013-06-23 05:27:00,
2013-06-23 00:32:00,71.2,69.7,30.03,NE,45,0.0,0.0,95,0.00,,---,0.00,VWS V14.01,2013-06-23 05:32:00,
2013-06-23 00:37:00,71.2,69.7,30.03,NE,45,0.0,0.0,95,0.00,,---,0.00,VWS V14.01,2013-06-23 05:37:00,
2013-06-23 00:42:00,71.2,69.7,30.03,NNE,22,0.0,0.0,95,0.00,,---,0.00,VWS V14.01,2013-06-23 05:42:00,
2013-06-23 00:47:00,71.2,69.7,30.03,NNE,22,0.0,0.0,95,0.00,,---,0.00,VWS V14.01,2013-06-23 05:47:00,
2013-06-23 00:52:00,71.2,69.7,30.03,NNE,22,0.0,0.0,95,0.00,,---,0.00,VWS V14.01,2013-06-23 05:52:00,
2013-06-23 00:57:00,71.2,69.7,30.03,NNE,22,0.0,0.0,95,0.00,,---,0.00,VWS V14.01,2013-06-23 05:57:00,
2013-06-23 01:01:00,71.2,69.7,30.03,NNE,22,0.0,0.0,95,0.00,,---,0.00,VWS V14.01,2013-06-23 06:01:00,
2013-06-23 01:06:00,71.2,69.7,30.03,NNE,22,0.0,0.0,95,0.00,,---,0.00,VWS V14.01,2013-06-23 06:06:00,
2013-06-23 01:11:00,71.2,69.7,30.03,SSE,158,0.0,0.0,95,0.00,,---,0.00,VWS V14.01,2013-06-23 06:11:00,
2013-06-23 01:16:00,71.2,69.7,30.03,SSE,158,0.0,0.0,95,0.00,,---,0.00,VWS V14.01,2013-06-23 06:16:00,
2013-06-23 01:21:00,71.2,69.7,30.03,SSE,158,0.0,0.0,95,0.00,,---,0.00,VWS V14.01,2013-06-23 06:21:00,
2013-06-23 01:26:00,71.2,69.7,30.03,SSE,158,0.0,0.0,95,0.00,,---,0.00,VWS V14.01,2013-06-23 06:26:00,
2013-06-23 01:31:00,71.2,69.7,30.03,SSE,158,0.0,0.0,95,0.00,,---,0.00,VWS V14.01,2013-06-23 06:31:00,
2013-06-23 01:36:00,71.2,69.7,30.03,SSE,158,0.0,0.0,95,0.00,,---,0.00,VWS V14.01,2013-06-23 06:36:00,
2013-06-23 01:41:00,71.2,69.7,30.03,SSE,158,0.0,0.0,95,0.00,,---,0.00,VWS V14.01,2013-06-23 06:41:00,
2013-06-23 01:46:00,71.2,69.7,30.03,SSE,158,0.0,0.0,95,0.00,,---,0.00,VWS V14.01,2013-06-23 06:46:00,
2013-06-23 01:51:00,71.0,69.5,30.03,SSE,158,0.0,0.0,95,0.00,,---,0.00,VWS V14.01,2013-06-23 06:51:00,
2013-06-23 01:56:00,71.0,69.5,30.03,SSE,158,0.0,0.0,95,0.00,,---,0.00,VWS V14.01,2013-06-23 06:56:00,
2013-06-23 02:01:00,71.0,69.5,30.00,SSE,158,0.0,0.0,95,0.00,,---,0.00,VWS V14.01,2013-06-23 07:01:00,
2013-06-23 02:06:00,71.0,69.5,30.00,SSE,158,0.0,0.0,95,0.00,,---,0.00,VWS V14.01,2013-06-23 07:06:00,
2013-06-23 02:11:00,71.0,69.5,30.00,SSE,158,0.0,0.0,95,0.00,,---,0.00,VWS V14.01,2013-06-23 07:11:00,
2013-06-23 02:16:00,70.8,69.3,30.00,SSE,158,0.0,0.0,95,0.00,,---,0.00,VWS V14.01,2013-06-23 07:16:00,
2013-06-23 02:21:00,70.8,69.3,30.00,SSE,158,0.0,0.0,95,0.00,,---,0.00,VWS V14.01,2013-06-23 07:21:00,
2013-06-23 02:26:00,70.6,69.1,30.00,SSE,158,0.0,0.0,95,0.00,,---,0.00,VWS V14.01,2013-06-23 07:26:00,
2013-06-23 02:31:00,70.6,69.4,30.00,SSE,158,0.0,0.0,96,0.00,,---,0.00,VWS V14.01,2013-06-23 07:31:00,
2013-06-23 02:36:00,70.6,69.4,30.00,SSE,158,0.0,0.0,96,0.00,,---,0.00,VWS V14.01,2013-06-23 07:36:00,
2013-06-23 02:41:00,70.6,69.4,30.00,SSE,158,0.0,0.0,96,0.00,,---,0.00,VWS V14.01,2013-06-23 07:41:00,
2013-06-23 02:46:00,70.4,69.2,30.00,SSE,158,0.0,0.0,96,0.00,,---,0.00,VWS V14.01,2013-06-23 07:46:00,
2013-06-23 02:51:00,70.4,69.2,30.00,SSE,158,0.0,0.0,96,0.00,,---,0.00,VWS V14.01,2013-06-23 07:51:00,
2013-06-23 02:56:00,70.3,68.8,30.00,SSE,158,0.0,0.0,95,0.00,,---,0.00,VWS V14.01,2013-06-23 07:56:00,
2013-06-23 03:01:00,70.3,69.1,30.00,SSE,158,0.0,0.0,96,0.00,,---,0.00,VWS V14.01,2013-06-23 08:01:00,
2013-06-23 03:06:00,70.3,69.1,30.00,SSE,158,0.0,0.0,96,0.00,,---,0.00,VWS V14.01,2013-06-23 08:06:00,
2013-06-23 03:11:00,70.3,69.1,30.00,SSE,158,0.0,0.0,96,0.00,,---,0.00,VWS V14.01,2013-06-23 08:11:00,
2013-06-23 03:16:00,70.1,68.6,30.00,SSE,158,0.0,0.0,95,0.00,,---,0.00,VWS V14.01,2013-06-23 08:16:00,
2013-06-23 03:21:00,70.1,68.6,30.00,SSE,158,0.0,0.0,95,0.00,,---,0.00,VWS V14.01,2013-06-23 08:21:00,
2013-06-23 03:26:00,69.9,68.4,30.00,SSE,158,0.0,0.0,95,0.00,,---,0.00,VWS V14.01,2013-06-23 08:26:00,
2013-06-23 03:31:00,69.9,68.7,30.00,SSE,158,0.0,0.0,96,0.00,,---,0.00,VWS V14.01,2013-06-23 08:31:00,
2013-06-23 03:36:00,69.9,68.7,30.00,SSE,158,0.0,0.0,96,0.00,,---,0.00,VWS V14.01,2013-06-23 08:36:00,
2013-06-23 03:41:00,69.7,68.2,30.00,WSW,248,0.0,0.0,95,0.00,,---,0.00,VWS V14.01,2013-06-23 08:41:00,
2013-06-23 03:46:00,69.5,68.1,30.00,WSW,248,0.0,0.0,95,0.00,,---,0.00,VWS V14.01,2013-06-23 08:46:00,
2013-06-23 03:51:00,69.5,68.1,30.00,WSW,248,0.0,0.0,95,0.00,,---,0.00,VWS V14.01,2013-06-23 08:51:00,
2013-06-23 03:56:00,69.4,67.9,30.00,WSW,248,0.0,0.0,95,0.00,,---,0.00,VWS V14.01,2013-06-23 08:56:00,
2013-06-23 04:01:00,69.4,67.9,30.00,WSW,248,0.0,0.0,95,0.00,,---,0.00,VWS V14.01,2013-06-23 09:01:00,
2013-06-23 04:06:00,69.4,67.9,30.00,WSW,248,0.0,0.0,95,0.00,,---,0.00,VWS V14.01,2013-06-23 09:06:00,
2013-06-23 04:11:00,69.4,67.9,30.00,WSW,248,0.0,0.0,95,0.00,,---,0.00,VWS V14.01,2013-06-23 09:11:00,
2013-06-23 04:16:00,69.2,67.7,30.00,WSW,248,0.0,0.0,95,0.00,,---,0.00,VWS V14.01,2013-06-23 09:16:00,
2013-06-23 04:21:00,69.2,67.7,30.00,WSW,248,0.0,0.0,95,0.00,,---,0.00,VWS V14.01,2013-06-23 09:21:00,
2013-06-23 04:26:00,69.2,68.0,30.00,WSW,248,0.0,0.0,96,0.00,,---,0.00,VWS V14.01,2013-06-23 09:26:00,
2013-06-23 04:31:00,69.4,68.2,30.00,WSW,248,0.0,0.0,96,0.00,,---,0.00,VWS V14.01,2013-06-23 09:31:00,
2013-06-23 04:37:00,69.2,68.0,30.00,WSW,248,0.0,0.0,96,0.00,,---,0.00,VWS V14.01,2013-06-23 09:37:00,
2013-06-23 04:42:00,69.2,68.0,30.00,WSW,248,0.0,0.0,96,0.00,,---,0.00,VWS V14.01,2013-06-23 09:42:00,
2013-06-23 04:47:00,69.2,68.0,30.00,West,270,0.0,0.0,96,0.00,,---,0.00,VWS V14.01,2013-06-23 09:47:00,
2013-06-23 04:52:00,69.2,68.0,30.00,West,270,0.0,0.0,96,0.00,,---,0.00,VWS V14.01,2013-06-23 09:52:00,
2013-06-23 04:57:00,69.0,67.8,30.00,West,270,0.0,0.0,96,0.00,,---,0.00,VWS V14.01,2013-06-23 09:57:00,
2013-06-23 05:02:00,69.0,67.8,30.00,SW,225,0.0,0.0,96,0.00,,---,0.00,VWS V14.01,2013-06-23 10:02:00,
2013-06-23 05:07:00,69.0,67.8,30.00,SW,225,0.0,0.0,96,0.00,,---,0.00,VWS V14.01,2013-06-23 10:07:00,
2013-06-23 05:12:00,69.0,67.8,30.00,SW,225,0.0,0.0,96,0.00,,---,0.00,VWS V14.01,2013-06-23 10:12:00,
2013-06-23 05:17:00,69.0,67.8,30.00,SW,225,0.0,0.0,96,0.00,,---,0.00,VWS V14.01,2013-06-23 10:17:00,
2013-06-23 05:22:00,68.8,67.6,30.00,SW,225,0.0,0.0,96,0.00,,---,0.00,VWS V14.01,2013-06-23 10:22:00,
2013-06-23 05:27:00,68.8,67.6,30.00,SW,225,0.0,0.0,96,0.00,,---,0.00,VWS V14.01,2013-06-23 10:27:00,
2013-06-23 05:32:00,68.8,67.6,30.03,SW,225,0.0,0.0,96,0.00,,---,0.00,VWS V14.01,2013-06-23 10:32:00,
2013-06-23 05:37:00,68.6,67.5,30.03,SW,225,0.0,0.0,96,0.00,,---,0.00,VWS V14.01,2013-06-23 10:37:00,
2013-06-23 05:42:00,68.6,67.5,30.03,SW,225,0.0,0.0,96,0.00,,---,0.00,VWS V14.01,2013-06-23 10:42:00,
2013-06-23 05:47:00,68.5,67.3,30.00,SW,225,0.0,0.0,96,0.00,,---,0.00,VWS V14.01,2013-06-23 10:47:00,
2013-06-23 05:52:00,68.5,67.3,30.00,SW,225,0.0,0.0,96,0.00,,---,0.00,VWS V14.01,2013-06-23 10:52:00,
2013-06-23 05:57:00,68.5,67.3,30.00,SW,225,0.0,0.0,96,0.00,,---,0.00,VWS V14.01,2013-06-23 10:57:00,
2013-06-23 06:02:00,68.5,67.3,30.03,SW,225,0.0,0.0,96,0.00,,---,0.00,VWS V14.01,2013-06-23 11:02:00,
2013-06-23 06:07:00,68.5,67.3,30.03,SW,225,0.0,0.0,96,0.00,,---,0.00,VWS V14.01,2013-06-23 11:07:00,
2013-06-23 06:12:00,68.5,67.3,30.03,SW,225,0.0,0.0,96,0.00,,---,0.00,VWS V14.01,2013-06-23 11:12:00,
2013-06-23 06:17:00,68.5,67.3,30.03,WNW,292,0.0,0.0,96,0.00,,---,0.00,VWS V14.01,2013-06-23 11:17:00,
2013-06-23 06:22:00,68.5,67.3,30.03,WNW,292,0.0,0.0,96,0.00,,---,0.00,VWS V14.01,2013-06-23 11:22:00,
2013-06-23 06:27:00,68.5,67.3,30.03,WNW,292,0.0,0.0,96,0.00,,---,0.00,VWS V14.01,2013-06-23 11:27:00,
2013-06-23 06:32:00,68.5,67.3,30.03,WNW,292,0.0,0.0,96,0.00,,---,0.00,VWS V14.01,2013-06-23 11:32:00,
2013-06-23 06:37:00,68.5,67.3,30.03,SW,225,0.0,0.0,96,0.00,,---,0.00,VWS V14.01,2013-06-23 11:37:00,
2013-06-23 06:42:00,68.6,67.8,30.03,SSE,158,0.0,0.0,97,0.00,,---,0.00,VWS V14.01,2013-06-23 11:42:00,
2013-06-23 06:47:00,68.6,67.8,30.03,SSE,158,0.0,0.0,97,0.00,,---,0.00,VWS V14.01,2013-06-23 11:47:00,
2013-06-23 06:52:00,68.8,67.9,30.03,NNW,338,0.0,0.0,97,0.00,,---,0.00,VWS V14.01,2013-06-23 11:52:00,
2013-06-23 06:57:00,69.0,67.8,30.03,NNW,338,0.0,0.0,96,0.00,,---,0.00,VWS V14.01,2013-06-23 11:57:00,
2013-06-23 07:02:00,69.0,67.8,30.03,NNW,338,0.0,0.0,96,0.00,,---,0.00,VWS V14.01,2013-06-23 12:02:00,
2013-06-23 07:07:00,69.2,68.3,30.03,NNW,338,0.0,0.0,97,0.00,,---,0.00,VWS V14.01,2013-06-23 12:07:00,
2013-06-23 07:12:00,69.4,68.5,30.03,NNW,338,0.0,0.0,97,0.00,,---,0.00,VWS V14.01,2013-06-23 12:12:00,
2013-06-23 07:17:00,69.7,68.8,30.03,NNW,338,0.0,0.0,97,0.00,,---,0.00,VWS V14.01,2013-06-23 12:17:00,
2013-06-23 07:22:00,69.9,69.0,30.03,NNW,338,0.0,0.0,97,0.00,,---,0.00,VWS V14.01,2013-06-23 12:22:00,
2013-06-23 07:27:00,70.1,69.2,30.03,NNW,338,0.0,0.0,97,0.00,,---,0.00,VWS V14.01,2013-06-23 12:27:00,
2013-06-23 07:32:00,70.3,69.4,30.03,NNW,338,0.0,0.0,97,0.00,,---,0.00,VWS V14.01,2013-06-23 12:32:00,
2013-06-23 07:37:00,70.4,69.6,30.03,NNW,338,0.0,0.0,97,0.00,,---,0.00,VWS V14.01,2013-06-23 12:37:00,
2013-06-23 07:42:00,70.6,69.7,30.03,SE,135,0.0,0.0,97,0.00,,---,0.00,VWS V14.01,2013-06-23 12:42:00,
2013-06-23 07:47:00,71.0,69.8,30.03,SE,135,0.0,0.0,96,0.00,,---,0.00,VWS V14.01,2013-06-23 12:47:00,
2013-06-23 07:52:00,71.2,70.0,30.03,SE,135,0.0,0.0,96,0.00,,---,0.00,VWS V14.01,2013-06-23 12:52:00,
2013-06-23 07:57:00,71.3,70.4,30.03,NNW,338,0.0,0.0,97,0.00,,---,0.00,VWS V14.01,2013-06-23 12:57:00,
2013-06-23 08:02:00,71.5,70.6,30.03,NNW,338,0.0,0.0,97,0.00,,---,0.00,VWS V14.01,2013-06-23 13:02:00,
2013-06-23 08:07:00,72.1,71.2,30.03,NNW,338,0.0,0.0,97,0.00,,---,0.00,VWS V14.01,2013-06-23 13:07:00,
2013-06-23 08:12:00,72.4,71.5,30.03,NNW,338,0.0,0.0,97,0.00,,---,0.00,VWS V14.01,2013-06-23 13:12:00,
2013-06-23 08:17:00,72.6,71.7,30.06,NNW,338,0.0,0.0,97,0.00,,---,0.00,VWS V14.01,2013-06-23 13:17:00,
2013-06-23 08:22:00,72.6,71.7,30.06,ENE,68,0.0,0.0,97,0.00,,---,0.00,VWS V14.01,2013-06-23 13:22:00,
2013-06-23 08:27:00,72.6,71.7,30.06,NNE,22,0.0,0.0,97,0.00,,---,0.00,VWS V14.01,2013-06-23 13:27:00,
2013-06-23 08:32:00,72.6,71.7,30.06,NNE,22,0.0,0.0,97,0.00,,---,0.00,VWS V14.01,2013-06-23 13:32:00,
2013-06-23 08:37:00,72.6,71.7,30.06,NNE,22,0.0,0.0,97,0.00,,---,0.00,VWS V14.01,2013-06-23 13:37:00,
2013-06-23 08:42:00,72.6,71.7,30.06,NNE,22,0.0,0.0,97,0.00,,---,0.00,VWS V14.01,2013-06-23 13:42:00,
2013-06-23 08:47:00,75.1,73.9,30.06,NNW,338,0.0,0.0,96,0.00,,---,0.00,VWS V14.01,2013-06-23 13:47:00,
2013-06-23 08:52:00,75.1,73.9,30.06,ENE,68,0.0,0.0,96,0.00,,---,0.00,VWS V14.01,2013-06-23 13:52:00,
2013-06-23 08:57:00,75.1,73.9,30.06,ENE,68,0.0,0.0,96,0.00,,---,0.00,VWS V14.01,2013-06-23 13:57:00,
2013-06-23 09:02:00,76.7,74.9,30.06,ENE,68,0.0,0.0,94,0.00,,---,0.00,VWS V14.01,2013-06-23 14:02:00,
2013-06-23 09:07:00,77.3,75.4,30.06,ENE,68,0.0,0.0,94,0.00,,---,0.00,VWS V14.01,2013-06-23 14:07:00,
2013-06-23 09:12:00,77.8,75.3,30.06,SW,225,0.0,0.0,92,0.00,,---,0.00,VWS V14.01,2013-06-23 14:12:00,
2013-06-23 09:17:00,78.4,75.2,30.06,NNW,338,0.0,0.0,90,0.00,,---,0.00,VWS V14.01,2013-06-23 14:17:00,
2013-06-23 09:22:00,78.9,75.4,30.06,NNW,338,0.0,0.0,89,0.00,,---,0.00,VWS V14.01,2013-06-23 14:22:00,
2013-06-23 09:27:00,79.4,75.9,30.06,North,0,0.0,0.0,89,0.00,,---,0.00,VWS V14.01,2013-06-23 14:27:00,
2013-06-23 09:32:00,80.0,75.8,30.06,ESE,112,0.0,0.0,87,0.00,,---,0.00,VWS V14.01,2013-06-23 14:32:00,
2013-06-23 09:37:00,80.5,75.6,30.06,ESE,112,0.0,0.0,85,0.00,,---,0.00,VWS V14.01,2013-06-23 14:37:00,
2013-06-23 09:42:00,81.1,76.1,30.06,SSW,202,0.0,0.0,85,0.00,,---,0.00,VWS V14.01,2013-06-23 14:42:00,
2013-06-23 09:47:00,81.4,75.8,30.06,NNW,338,0.0,0.0,83,0.00,,---,0.00,VWS V14.01,2013-06-23 14:47:00,
2013-06-23 09:52:00,81.8,75.0,30.06,WNW,292,0.0,0.0,80,0.00,,---,0.00,VWS V14.01,2013-06-23 14:52:00,
2013-06-23 09:58:00,82.1,75.4,30.06,NNW,338,0.0,0.0,80,0.00,,---,0.00,VWS V14.01,2013-06-23 14:58:00,
2013-06-23 10:03:00,82.5,75.3,30.06,NNW,338,0.0,0.0,79,0.00,,---,0.00,VWS V14.01,2013-06-23 15:03:00,
2013-06-23 10:08:00,82.7,74.7,30.06,NW,315,0.0,0.0,77,0.00,,---,0.00,VWS V14.01,2013-06-23 15:08:00,
2013-06-23 10:13:00,83.0,74.3,30.06,WNW,292,0.0,0.0,75,0.00,,---,0.00,VWS V14.01,2013-06-23 15:13:00,
2013-06-23 10:18:00,83.0,72.7,30.06,NW,315,2.5,2.5,71,0.00,,---,0.00,VWS V14.01,2013-06-23 15:18:00,
2013-06-23 10:23:00,83.2,72.4,30.06,NW,315,0.0,0.9,70,0.00,,---,0.00,VWS V14.01,2013-06-23 15:23:00,
2013-06-23 10:28:00,83.6,73.2,30.06,SSE,158,1.3,1.3,71,0.00,,---,0.00,VWS V14.01,2013-06-23 15:28:00,
2013-06-23 10:33:00,83.8,73.4,30.06,ENE,68,1.1,2.2,71,0.00,,---,0.00,VWS V14.01,2013-06-23 15:33:00,
2013-06-23 10:38:00,84.1,72.9,30.06,ENE,68,0.0,0.0,69,0.00,,---,0.00,VWS V14.01,2013-06-23 15:38:00,
2013-06-23 10:43:00,84.3,73.5,30.06,ENE,68,0.0,0.0,70,0.00,,---,0.00,VWS V14.01,2013-06-23 15:43:00,
2013-06-23 10:48:00,84.5,73.6,30.06,SSW,202,0.0,0.0,70,0.00,,---,0.00,VWS V14.01,2013-06-23 15:48:00,
2013-06-23 10:53:00,84.7,72.5,30.06,WSW,248,0.0,0.0,67,0.00,,---,0.00,VWS V14.01,2013-06-23 15:53:00,
2013-06-23 10:58:00,84.8,71.3,30.06,ENE,68,0.0,0.0,64,0.00,,---,0.00,VWS V14.01,2013-06-23 15:58:00,
2013-06-23 11:03:00,85.0,72.4,30.06,East,90,0.0,0.0,66,0.00,,---,0.00,VWS V14.01,2013-06-23 16:03:00,
2013-06-23 11:08:00,85.2,72.6,30.06,SSW,202,0.0,0.0,66,0.00,,---,0.00,VWS V14.01,2013-06-23 16:08:00,
2013-06-23 11:13:00,85.4,71.8,30.06,SSW,202,0.0,0.0,64,0.00,,---,0.00,VWS V14.01,2013-06-23 16:13:00,
2013-06-23 11:18:00,85.4,71.4,30.06,SSW,202,0.0,0.0,63,0.00,,---,0.00,VWS V14.01,2013-06-23 16:18:00,
2013-06-23 11:23:00,85.4,70.4,30.06,NW,315,0.0,0.0,61,0.00,,---,0.00,VWS V14.01,2013-06-23 16:23:00,
2013-06-23 11:28:00,85.6,70.1,30.06,WSW,248,0.0,0.0,60,0.00,,---,0.00,VWS V14.01,2013-06-23 16:28:00,
2013-06-23 11:34:00,85.6,70.1,30.06,West,270,0.0,0.0,60,0.00,,---,0.00,VWS V14.01,2013-06-23 16:34:00,
2013-06-23 11:39:00,85.9,70.9,30.06,WSW,248,0.0,0.0,61,0.00,,---,0.00,VWS V14.01,2013-06-23 16:39:00,
2013-06-23 11:44:00,86.1,71.6,30.06,SSW,202,0.0,0.0,62,0.00,,---,0.00,VWS V14.01,2013-06-23 16:44:00,
2013-06-23 11:49:00,86.3,71.3,30.06,SSW,202,1.1,1.1,61,0.00,,---,0.00,VWS V14.01,2013-06-23 16:49:00,
2013-06-23 11:54:00,86.1,71.1,30.06,South,180,0.0,0.0,61,0.00,,---,0.00,VWS V14.01,2013-06-23 16:54:00,
2013-06-23 11:57:00,86.1,71.6,30.06,SSW,202,0.0,0.0,62,0.00,,---,0.00,VWS V14.01,2013-06-23 16:57:00,
2013-06-23 11:59:00,85.9,70.9,30.06,SSW,202,0.0,0.0,61,0.00,,---,0.00,VWS V14.01,2013-06-23 16:59:00,
2013-06-23 12:04:00,86.1,70.6,30.06,SSW,202,0.0,0.0,60,0.00,,---,0.00,VWS V14.01,2013-06-23 17:04:00,
2013-06-23 12:09:00,86.5,70.9,30.06,WNW,292,1.6,1.6,60,0.00,,---,0.00,VWS V14.01,2013-06-23 17:09:00,
2013-06-23 12:14:00,86.6,70.6,30.06,NNW,338,0.0,0.0,59,0.00,,---,0.00,VWS V14.01,2013-06-23 17:14:00,
2013-06-23 12:19:00,87.0,70.9,30.06,NNE,22,0.0,0.0,59,0.00,,---,0.00,VWS V14.01,2013-06-23 17:19:00,
2013-06-23 12:24:00,86.8,72.2,30.06,NE,45,0.0,0.0,62,0.00,,---,0.00,VWS V14.01,2013-06-23 17:24:00,
2013-06-23 12:29:00,86.3,71.7,30.06,NE,45,0.0,0.0,62,0.00,,---,0.00,VWS V14.01,2013-06-23 17:29:00,
2013-06-23 12:34:00,86.8,72.2,30.06,NE,45,0.0,0.0,62,0.00,,---,0.00,VWS V14.01,2013-06-23 17:34:00,
2013-06-23 12:39:00,87.0,71.4,30.06,WNW,292,0.9,0.9,60,0.00,,---,0.00,VWS V14.01,2013-06-23 17:39:00,
2013-06-23 12:44:00,87.0,72.4,30.03,NE,45,0.0,0.0,62,0.00,,---,0.00,VWS V14.01,2013-06-23 17:44:00,
2013-06-23 12:49:00,86.5,72.8,30.03,ENE,68,0.0,0.0,64,0.00,,---,0.00,VWS V14.01,2013-06-23 17:49:00,
2013-06-23 12:54:00,85.7,72.2,30.03,ENE,68,0.0,0.0,64,0.00,,---,0.00,VWS V14.01,2013-06-23 17:54:00,
2013-06-23 12:59:00,85.2,71.7,30.03,ENE,68,0.0,0.0,64,0.00,,---,0.00,VWS V14.01,2013-06-23 17:59:00,
2013-06-23 13:04:00,85.0,71.9,30.03,NNW,338,0.0,0.0,65,0.00,,---,0.00,VWS V14.01,2013-06-23 18:04:00,
2013-06-23 13:09:00,85.0,71.9,30.03,NW,315,0.0,0.0,65,0.00,,---,0.00,VWS V14.01,2013-06-23 18:09:00,
2013-06-23 13:14:00,84.5,71.4,30.03,West,270,0.0,0.0,65,0.00,,---,0.00,VWS V14.01,2013-06-23 18:14:00,
2013-06-23 13:19:00,84.1,71.5,30.03,WNW,292,0.0,0.0,66,0.00,,---,0.00,VWS V14.01,2013-06-23 18:19:00,
2013-06-23 13:24:00,84.1,72.0,30.03,NNW,338,0.0,0.0,67,0.00,,---,0.00,VWS V14.01,2013-06-23 18:24:00,
2013-06-23 13:29:00,84.5,72.8,30.03,NW,315,0.0,0.0,68,0.00,,---,0.00,VWS V14.01,2013-06-23 18:29:00,
2013-06-23 13:34:00,85.4,73.6,30.03,ENE,68,0.0,0.0,68,0.00,,---,0.00,VWS V14.01,2013-06-23 18:34:00,
2013-06-23 13:39:00,86.3,74.0,30.03,ENE,68,0.0,0.0,67,0.00,,---,0.00,VWS V14.01,2013-06-23 18:39:00,
2013-06-23 13:44:00,86.5,71.9,30.03,West,270,0.0,0.0,62,0.00,,---,0.00,VWS V14.01,2013-06-23 18:44:00,
2013-06-23 13:49:00,86.1,71.6,30.03,West,270,0.0,0.0,62,0.00,,---,0.00,VWS V14.01,2013-06-23 18:49:00,
2013-06-23 13:54:00,85.9,72.3,30.03,West,270,0.0,0.0,64,0.00,,---,0.00,VWS V14.01,2013-06-23 18:54:00,
2013-06-23 14:00:00,85.6,72.9,30.03,South,180,0.0,0.0,66,0.00,,---,0.00,VWS V14.01,2013-06-23 19:00:00,
2013-06-23 14:05:00,85.4,72.7,30.03,ESE,112,0.0,0.0,66,0.00,,---,0.00,VWS V14.01,2013-06-23 19:05:00,
2013-06-23 14:10:00,84.8,72.7,30.03,ESE,112,0.0,0.0,67,0.00,,---,0.00,VWS V14.01,2013-06-23 19:10:00,
2013-06-23 14:15:00,84.5,72.8,30.03,ESE,112,0.0,0.0,68,0.00,,---,0.00,VWS V14.01,2013-06-23 19:15:00,
2013-06-23 14:20:00,84.8,73.5,30.03,East,90,0.0,0.0,69,0.00,,---,0.00,VWS V14.01,2013-06-23 19:20:00,
2013-06-23 14:25:00,85.9,75.0,30.03,NE,45,0.0,0.0,70,0.00,,---,0.00,VWS V14.01,2013-06-23 19:25:00,
2013-06-23 14:30:00,86.6,74.8,30.00,ENE,68,0.0,0.0,68,0.00,,---,0.00,VWS V14.01,2013-06-23 19:30:00,
2013-06-23 14:35:00,86.8,74.1,30.00,SE,135,0.0,0.0,66,0.00,,---,0.00,VWS V14.01,2013-06-23 19:35:00,
2013-06-23 14:40:00,87.0,74.7,30.00,ENE,68,0.0,0.0,67,0.00,,---,0.00,VWS V14.01,2013-06-23 19:40:00,
2013-06-23 14:45:00,86.1,72.0,30.00,ENE,68,0.0,0.0,63,0.00,,---,0.00,VWS V14.01,2013-06-23 19:45:00,
2013-06-23 14:50:00,85.4,71.4,30.00,SE,135,0.0,0.0,63,0.00,,---,0.00,VWS V14.01,2013-06-23 19:50:00,
2013-06-23 14:55:00,84.7,71.6,30.00,ESE,112,0.0,0.0,65,0.00,,---,0.00,VWS V14.01,2013-06-23 19:55:00,
2013-06-23 15:00:00,83.9,71.8,30.00,ENE,68,0.0,0.0,67,0.00,,---,0.00,VWS V14.01,2013-06-23 20:00:00,
2013-06-23 15:05:00,83.6,71.9,30.00,ENE,68,0.0,0.0,68,0.00,,---,0.00,VWS V14.01,2013-06-23 20:05:00,
2013-06-23 15:10:00,82.9,72.5,30.00,ENE,68,0.0,0.0,71,0.00,,---,0.00,VWS V14.01,2013-06-23 20:10:00,
2013-06-23 15:15:00,82.3,72.0,30.00,North,0,0.0,0.0,71,0.00,,---,0.00,VWS V14.01,2013-06-23 20:15:00,
2013-06-23 15:20:00,82.1,73.0,30.00,North,0,0.0,0.0,74,0.00,,---,0.00,VWS V14.01,2013-06-23 20:20:00,
2013-06-23 15:25:00,82.1,73.4,30.00,North,0,0.0,0.0,75,0.00,,---,0.00,VWS V14.01,2013-06-23 20:25:00,
2013-06-23 15:30:00,82.3,74.4,30.00,North,0,0.0,0.0,77,0.00,,---,0.00,VWS V14.01,2013-06-23 20:30:00,
2013-06-23 15:35:00,82.3,75.2,30.00,North,0,0.0,0.0,79,0.00,,---,0.00,VWS V14.01,2013-06-23 20:35:00,
2013-06-23 15:40:00,82.5,75.3,30.00,North,0,0.0,0.0,79,0.00,,---,0.00,VWS V14.01,2013-06-23 20:40:00,
2013-06-23 15:45:00,83.0,76.6,30.00,North,0,0.0,0.0,81,0.00,,---,0.00,VWS V14.01,2013-06-23 20:45:00,
2013-06-23 15:50:00,83.8,75.4,30.00,North,0,0.0,0.0,76,0.00,,---,0.00,VWS V14.01,2013-06-23 20:50:00,
2013-06-23 15:55:00,83.9,75.6,30.00,North,0,0.0,0.0,76,0.00,,---,0.00,VWS V14.01,2013-06-23 20:55:00,
2013-06-23 16:00:00,83.9,76.0,30.00,North,0,0.0,0.0,77,0.00,,---,0.00,VWS V14.01,2013-06-23 21:00:00,
2013-06-23 16:05:00,84.1,75.7,30.00,North,0,0.0,0.0,76,0.00,,---,0.00,VWS V14.01,2013-06-23 21:05:00,
2013-06-23 16:10:00,84.3,75.5,30.00,North,0,0.0,0.0,75,0.00,,---,0.00,VWS V14.01,2013-06-23 21:10:00,
2013-06-23 16:15:00,84.8,76.0,30.00,North,0,0.0,0.0,75,0.00,,---,0.00,VWS V14.01,2013-06-23 21:15:00,
2013-06-23 16:20:00,85.4,75.8,30.00,NE,45,0.0,0.0,73,0.00,,---,0.00,VWS V14.01,2013-06-23 21:20:00,
2013-06-23 16:25:00,85.7,74.4,30.00,NE,45,0.0,0.0,69,0.00,,---,0.00,VWS V14.01,2013-06-23 21:25:00,
2013-06-23 16:30:00,85.9,74.1,30.00,NE,45,0.0,0.0,68,0.00,,---,0.00,VWS V14.01,2013-06-23 21:30:00,
2013-06-23 16:36:00,85.9,74.6,30.00,ENE,68,0.0,0.0,69,0.00,,---,0.00,VWS V14.01,2013-06-23 21:36:00,
2013-06-23 16:41:00,86.3,74.0,30.00,NE,45,0.0,0.0,67,0.00,,---,0.00,VWS V14.01,2013-06-23 21:41:00,
2013-06-23 16:46:00,86.3,74.5,30.00,NE,45,0.0,0.0,68,0.00,,---,0.00,VWS V14.01,2013-06-23 21:46:00,
2013-06-23 16:51:00,86.5,74.7,30.00,NNW,338,0.0,0.0,68,0.00,,---,0.00,VWS V14.01,2013-06-23 21:51:00,
2013-06-23 16:56:00,86.6,74.4,30.00,ENE,68,0.0,0.0,67,0.00,,---,0.00,VWS V14.01,2013-06-23 21:56:00,
2013-06-23 17:01:00,86.8,73.7,30.00,ENE,68,0.0,0.0,65,0.00,,---,0.00,VWS V14.01,2013-06-23 22:01:00,
2013-06-23 17:06:00,86.8,74.1,30.00,ENE,68,0.0,0.0,66,0.00,,---,0.00,VWS V14.01,2013-06-23 22:06:00,
2013-06-23 17:11:00,86.5,74.2,30.00,ENE,68,0.0,0.0,67,0.00,,---,0.00,VWS V14.01,2013-06-23 22:11:00,
2013-06-23 17:16:00,86.3,74.0,30.00,NNW,338,0.0,0.0,67,0.00,,---,0.00,VWS V14.01,2013-06-23 22:16:00,
2013-06-23 17:21:00,85.9,73.7,30.00,SSE,158,0.0,0.0,67,0.00,,---,0.00,VWS V14.01,2013-06-23 22:21:00,
2013-06-23 17:26:00,85.9,74.1,30.00,NNE,22,0.0,0.0,68,0.00,,---,0.00,VWS V14.01,2013-06-23 22:26:00,
2013-06-23 17:31:00,86.1,74.3,30.00,West,270,0.0,0.0,68,0.00,,---,0.00,VWS V14.01,2013-06-23 22:31:00,
2013-06-23 17:36:00,86.3,74.5,30.00,SSE,158,0.0,0.0,68,0.00,,---,0.00,VWS V14.01,2013-06-23 22:36:00,
2013-06-23 17:41:00,86.1,73.9,30.00,ENE,68,0.0,0.0,67,0.00,,---,0.00,VWS V14.01,2013-06-23 22:41:00,
2013-06-23 17:46:00,85.9,73.7,30.00,ENE,68,0.0,0.0,67,0.00,,---,0.00,VWS V14.01,2013-06-23 22:46:00,
2013-06-23 17:51:00,85.4,73.2,30.00,ENE,68,0.0,0.0,67,0.00,,---,0.00,VWS V14.01,2013-06-23 22:51:00,
2013-06-23 17:56:00,85.0,73.3,30.00,ENE,68,0.0,0.0,68,0.00,,---,0.00,VWS V14.01,2013-06-23 22:56:00,
2013-06-23 18:01:00,84.7,72.9,30.00,ENE,68,0.0,0.0,68,0.00,,---,0.00,VWS V14.01,2013-06-23 23:01:00,
2013-06-23 18:06:00,84.7,73.8,30.00,ESE,112,0.0,0.0,70,0.00,,---,0.00,VWS V14.01,2013-06-23 23:06:00,
2013-06-23 18:11:00,84.5,73.6,30.00,ESE,112,0.0,0.0,70,0.00,,---,0.00,VWS V14.01,2013-06-23 23:11:00,
2013-06-23 18:16:00,84.3,74.3,30.00,SE,135,0.0,0.0,72,0.00,,---,0.00,VWS V14.01,2013-06-23 23:16:00,
2013-06-23 18:21:00,84.3,74.3,30.00,SSE,158,0.0,0.0,72,0.00,,---,0.00,VWS V14.01,2013-06-23 23:21:00,
2013-06-23 18:26:00,84.1,74.5,30.00,SSE,158,0.0,0.0,73,0.00,,---,0.00,VWS V14.01,2013-06-23 23:26:00,
2013-06-23 18:31:00,84.1,74.9,30.00,SSE,158,0.0,0.0,74,0.00,,---,0.00,VWS V14.01,2013-06-23 23:31:00,
2013-06-23 18:36:00,83.9,74.4,30.00,SSE,158,0.0,0.0,73,0.00,,---,0.00,VWS V14.01,2013-06-23 23:36:00,
2013-06-23 18:41:00,83.6,74.0,30.00,SSE,158,0.0,0.0,73,0.00,,---,0.00,VWS V14.01,2013-06-23 23:41:00,
2013-06-23 18:46:00,83.4,74.2,30.00,SSE,158,0.0,0.0,74,0.00,,---,0.00,VWS V14.01,2013-06-23 23:46:00,
2013-06-23 18:51:00,83.2,74.1,30.00,SSE,158,0.0,0.0,74,0.00,,---,0.00,VWS V14.01,2013-06-23 23:51:00,
2013-06-23 18:56:00,82.9,73.7,30.00,SSE,158,0.0,0.0,74,0.00,,---,0.00,VWS V14.01,2013-06-23 23:56:00,
2013-06-23 19:01:00,82.7,73.9,29.97,SSE,158,0.0,0.0,75,0.00,,---,0.00,VWS V14.01,2013-06-24 00:01:00,
2013-06-23 19:06:00,82.5,74.2,29.97,SSE,158,0.0,0.0,76,0.00,,---,0.00,VWS V14.01,2013-06-24 00:06:00,
2013-06-23 19:11:00,82.3,74.4,29.97,SSE,158,0.0,0.0,77,0.00,,---,0.00,VWS V14.01,2013-06-24 00:11:00,
2013-06-23 19:17:00,82.1,74.2,30.00,SSE,158,0.0,0.0,77,0.00,,---,0.00,VWS V14.01,2013-06-24 00:17:00,
2013-06-23 19:22:00,82.0,74.0,30.00,SSE,158,0.0,0.0,77,0.00,,---,0.00,VWS V14.01,2013-06-24 00:22:00,
2013-06-23 19:27:00,81.8,73.9,30.00,SSE,158,0.0,0.0,77,0.00,,---,0.00,VWS V14.01,2013-06-24 00:27:00,
2013-06-23 19:32:00,81.4,73.9,30.00,SSE,158,0.0,0.0,78,0.00,,---,0.00,VWS V14.01,2013-06-24 00:32:00,
2013-06-23 19:37:00,81.2,73.7,30.00,SSE,158,0.0,0.0,78,0.00,,---,0.00,VWS V14.01,2013-06-24 00:37:00,
2013-06-23 19:42:00,81.1,73.9,30.00,SSE,158,0.0,0.0,79,0.00,,---,0.00,VWS V14.01,2013-06-24 00:42:00,
2013-06-23 19:47:00,80.9,73.8,29.97,ENE,68,0.0,0.0,79,0.00,,---,0.00,VWS V14.01,2013-06-24 00:47:00,
2013-06-23 19:52:00,80.5,73.8,29.97,ENE,68,0.0,0.0,80,0.00,,---,0.00,VWS V14.01,2013-06-24 00:52:00,
2013-06-23 19:57:00,80.3,74.0,29.97,ENE,68,0.0,0.0,81,0.00,,---,0.00,VWS V14.01,2013-06-24 00:57:00,
2013-06-23 20:02:00,80.0,73.6,30.00,SSE,158,0.0,0.0,81,0.00,,---,0.00,VWS V14.01,2013-06-24 01:02:00,
2013-06-23 20:07:00,79.8,74.2,30.00,SSE,158,0.0,0.0,83,0.00,,---,0.00,VWS V14.01,2013-06-24 01:07:00,
2013-06-23 20:12:00,79.6,74.4,30.00,SSE,158,0.0,0.0,84,0.00,,---,0.00,VWS V14.01,2013-06-24 01:12:00,
2013-06-23 20:17:00,79.6,74.4,30.00,SSE,158,0.0,0.0,84,0.00,,---,0.00,VWS V14.01,2013-06-24 01:17:00,
2013-06-23 20:22:00,79.4,74.2,30.00,SSE,158,0.0,0.0,84,0.00,,---,0.00,VWS V14.01,2013-06-24 01:22:00,
2013-06-23 20:27:00,79.4,73.8,30.00,SSE,158,0.0,0.0,83,0.00,,---,0.00,VWS V14.01,2013-06-24 01:27:00,
2013-06-23 20:32:00,79.1,73.5,30.00,SSE,158,0.0,0.0,83,0.00,,---,0.00,VWS V14.01,2013-06-24 01:32:00,
2013-06-23 20:37:00,78.9,72.9,30.00,ESE,112,0.0,0.0,82,0.00,,---,0.00,VWS V14.01,2013-06-24 01:37:00,
2013-06-23 20:42:00,78.7,72.4,30.00,SE,135,0.0,0.0,81,0.00,,---,0.00,VWS V14.01,2013-06-24 01:42:00,
2013-06-23 20:47:00,78.5,72.2,30.00,ENE,68,0.0,0.0,81,0.00,,---,0.00,VWS V14.01,2013-06-24 01:47:00,
2013-06-23 20:52:00,78.4,72.1,30.00,SSE,158,0.0,0.0,81,0.00,,---,0.00,VWS V14.01,2013-06-24 01:52:00,
2013-06-23 20:57:00,78.2,71.9,30.00,SSE,158,0.0,0.0,81,0.00,,---,0.00,VWS V14.01,2013-06-24 01:57:00,
2013-06-23 21:02:00,77.8,71.9,30.00,SSE,158,0.0,0.0,82,0.00,,---,0.00,VWS V14.01,2013-06-24 02:02:00,
2013-06-23 21:07:00,77.5,71.5,30.00,SSW,202,0.0,0.0,82,0.00,,---,0.00,VWS V14.01,2013-06-24 02:07:00,
2013-06-23 21:12:00,77.3,71.4,30.00,SSW,202,0.0,0.0,82,0.00,,---,0.00,VWS V14.01,2013-06-24 02:12:00,
2013-06-23 21:17:00,77.1,71.2,30.03,SSW,202,0.0,0.0,82,0.00,,---,0.00,VWS V14.01,2013-06-24 02:17:00,
2013-06-23 21:22:00,76.9,71.0,30.03,SSW,202,0.0,0.0,82,0.00,,---,0.00,VWS V14.01,2013-06-24 02:22:00,
2013-06-23 21:27:00,76.9,71.4,30.03,SSW,202,0.0,0.0,83,0.00,,---,0.00,VWS V14.01,2013-06-24 02:27:00,
2013-06-23 21:32:00,76.7,71.2,30.03,SSW,202,0.0,0.0,83,0.00,,---,0.00,VWS V14.01,2013-06-24 02:32:00,
2013-06-23 21:37:00,76.6,71.4,30.03,SSW,202,0.0,0.0,84,0.00,,---,0.00,VWS V14.01,2013-06-24 02:37:00,
2013-06-23 21:43:00,76.4,71.2,30.03,South,180,0.0,0.0,84,0.00,,---,0.00,VWS V14.01,2013-06-24 02:43:00,
2013-06-23 21:48:00,76.4,71.2,30.03,SSW,202,0.0,0.0,84,0.00,,---,0.00,VWS V14.01,2013-06-24 02:48:00,
2013-06-23 21:53:00,76.2,71.0,30.03,SSW,202,0.0,0.0,84,0.00,,---,0.00,VWS V14.01,2013-06-24 02:53:00,
2013-06-23 21:58:00,76.2,71.4,30.03,SSE,158,0.0,0.0,85,0.00,,---,0.00,VWS V14.01,2013-06-24 02:58:00,
2013-06-23 22:03:00,76.0,71.2,30.03,ENE,68,0.0,0.0,85,0.00,,---,0.00,VWS V14.01,2013-06-24 03:03:00,
2013-06-23 22:08:00,76.0,71.2,30.03,ENE,68,0.0,0.0,85,0.00,,---,0.00,VWS V14.01,2013-06-24 03:08:00,
2013-06-23 22:13:00,76.0,71.2,30.06,ENE,68,0.0,0.0,85,0.00,,---,0.00,VWS V14.01,2013-06-24 03:13:00,
2013-06-23 22:18:00,75.8,71.0,30.06,ENE,68,0.0,0.0,85,0.00,,---,0.00,VWS V14.01,2013-06-24 03:18:00,
2013-06-23 22:23:00,75.8,71.0,30.06,SSE,158,0.0,0.0,85,0.00,,---,0.00,VWS V14.01,2013-06-24 03:23:00,
2013-06-23 22:28:00,75.7,70.8,30.06,SSE,158,0.0,0.0,85,0.00,,---,0.00,VWS V14.01,2013-06-24 03:28:00,
2013-06-23 22:33:00,75.5,70.7,30.06,SSE,158,0.0,0.0,85,0.00,,---,0.00,VWS V14.01,2013-06-24 03:33:00,
2013-06-23 22:38:00,75.3,70.8,30.06,SSE,158,0.0,0.0,86,0.00,,---,0.00,VWS V14.01,2013-06-24 03:38:00,
2013-06-23 22:43:00,75.3,70.5,30.06,SSE,158,0.0,0.0,85,0.00,,---,0.00,VWS V14.01,2013-06-24 03:43:00,
2013-06-23 22:48:00,75.1,70.3,30.06,SSE,158,0.0,0.0,85,0.00,,---,0.00,VWS V14.01,2013-06-24 03:48:00,
2013-06-23 22:53:00,74.9,70.1,30.06,SSE,158,0.0,0.0,85,0.00,,---,0.00,VWS V14.01,2013-06-24 03:53:00,
2013-06-23 22:58:00,74.8,70.3,30.03,SSE,158,0.0,0.0,86,0.00,,---,0.00,VWS V14.01,2013-06-24 03:58:00,
2013-06-23 23:01:00,74.8,70.3,30.03,SSE,158,0.0,0.0,86,0.00,,---,0.00,VWS V14.01,2013-06-24 04:01:00,
2013-06-23 23:02:00,74.6,70.1,30.03,WNW,292,0.0,0.0,86,0.00,,---,0.00,VWS V14.01,2013-06-24 04:02:00,
2013-06-23 23:07:00,74.4,69.9,30.03,WNW,292,0.0,0.0,86,0.00,,---,0.00,VWS V14.01,2013-06-24 04:07:00,
2013-06-23 23:12:00,74.2,70.4,30.03,WNW,292,0.0,0.0,88,0.00,,---,0.00,VWS V14.01,2013-06-24 04:12:00,
2013-06-23 23:17:00,74.2,70.1,30.06,WNW,292,0.0,0.0,87,0.00,,---,0.00,VWS V14.01,2013-06-24 04:17:00,
2013-06-23 23:22:00,74.0,70.3,30.06,WSW,248,0.0,0.0,88,0.00,,---,0.00,VWS V14.01,2013-06-24 04:22:00,
2013-06-23 23:27:00,73.9,70.1,30.06,WSW,248,0.0,0.0,88,0.00,,---,0.00,VWS V14.01,2013-06-24 04:27:00,
2013-06-23 23:32:00,73.7,69.9,30.06,WSW,248,0.0,0.0,88,0.00,,---,0.00,VWS V14.01,2013-06-24 04:32:00,
2013-06-23 23:37:00,73.7,69.9,30.06,WSW,248,0.0,0.0,88,0.00,,---,0.00,VWS V14.01,2013-06-24 04:37:00,
2013-06-23 23:42:00,73.5,70.1,30.06,WSW,248,0.0,0.0,89,0.00,,---,0.00,VWS V14.01,2013-06-24 04:42:00,
2013-06-23 23:47:00,73.3,69.9,30.06,ENE,68,0.0,0.0,89,0.00,,---,0.00,VWS V14.01,2013-06-24 04:47:00,
2013-06-23 23:52:00,73.3,69.9,30.06,ENE,68,0.0,0.0,89,0.00,,---,0.00,VWS V14.01,2013-06-24 04:52:00,
2013-06-23 23:57:00,73.1,70.0,30.06,ENE,68,0.0,0.0,90,0.00,,---,0.00,VWS V14.01,2013-06-24 04:57:00,